sensor_id;sensor_type;location;lat;lon;timestamp;P1;durP1;ratioP1;P2;durP2;ratioP2
44358;SDS011;30077;52.474;13.326;2023-10-31T00:05:18;11.90;;;6.38;;
44358;SDS011;30077;52.474;13.326;2023-10-31T00:15:19;13.02;;;5.70;;
44358;SDS011;30077;52.474;13.326;2023-10-31T00:25:19;12.70;;;7.23;;
44358;SDS011;30077;52.474;13.326;2023-10-31T00:35:20;11.67;;;7.07;;
44358;SDS011;30077;52.474;13.326;2023-10-31T00:45:21;13.10;;;6.70;;
44358;SDS011;30077;52.474;13.326;2023-10-31T00:55:21;13.40;;;6.45;;
44358;SDS011;30077;52.474;13.326;2023-10-31T01:05:24;13.80;;;6.80;;
44358;SDS011;30077;52.474;13.326;2023-10-31T01:15:26;13.27;;;7.35;;
44358;SDS011;30077;52.474;13.326;2023-10-31T01:25:27;15.97;;;7.43;;
44358;SDS011;30077;52.474;13.326;2023-10-31T01:35:28;14.57;;;8.27;;
44358;SDS011;30077;52.474;13.326;2023-10-31T01:45:28;14.77;;;8.23;;
44358;SDS011;30077;52.474;13.326;2023-10-31T01:55:29;12.07;;;7.90;;
44358;SDS011;30077;52.474;13.326;2023-10-31T02:05:30;15.00;;;8.65;;
44358;SDS011;30077;52.474;13.326;2023-10-31T02:15:32;19.23;;;9.38;;
44358;SDS011;30077;52.474;13.326;2023-10-31T02:25:32;15.30;;;8.90;;
44358;SDS011;30077;52.474;13.326;2023-10-31T02:35:33;15.77;;;9.35;;
44358;SDS011;30077;52.474;13.326;2023-10-31T02:45:34;15.27;;;8.73;;
44358;SDS011;30077;52.474;13.326;2023-10-31T02:55:35;19.60;;;10.20;;
44358;SDS011;30077;52.474;13.326;2023-10-31T03:05:35;18.20;;;8.93;;
44358;SDS011;30077;52.474;13.326;2023-10-31T03:15:36;17.50;;;10.13;;
44358;SDS011;30077;52.474;13.326;2023-10-31T03:25:37;15.57;;;10.32;;
44358;SDS011;30077;52.474;13.326;2023-10-31T03:35:37;14.68;;;9.13;;
44358;SDS011;30077;52.474;13.326;2023-10-31T03:45:38;18.97;;;10.00;;
44358;SDS011;30077;52.474;13.326;2023-10-31T03:55:40;16.95;;;9.45;;
44358;SDS011;30077;52.474;13.326;2023-10-31T04:05:40;13.30;;;9.87;;
44358;SDS011;30077;52.474;13.326;2023-10-31T04:15:41;14.73;;;9.77;;
44358;SDS011;30077;52.474;13.326;2023-10-31T04:25:42;13.75;;;9.70;;
44358;SDS011;30077;52.474;13.326;2023-10-31T04:35:42;13.85;;;10.27;;
44358;SDS011;30077;52.474;13.326;2023-10-31T04:45:43;15.63;;;10.97;;
44358;SDS011;30077;52.474;13.326;2023-10-31T04:55:44;16.90;;;11.37;;
44358;SDS011;30077;52.474;13.326;2023-10-31T05:05:44;16.63;;;11.27;;
44358;SDS011;30077;52.474;13.326;2023-10-31T05:15:45;16.37;;;11.80;;
44358;SDS011;30077;52.474;13.326;2023-10-31T05:25:46;20.90;;;12.65;;
44358;SDS011;30077;52.474;13.326;2023-10-31T05:35:46;19.40;;;12.47;;
44358;SDS011;30077;52.474;13.326;2023-10-31T05:45:47;14.63;;;10.80;;
44358;SDS011;30077;52.474;13.326;2023-10-31T05:55:48;14.93;;;9.23;;
44358;SDS011;30077;52.474;13.326;2023-10-31T06:05:49;11.18;;;9.00;;
44358;SDS011;30077;52.474;13.326;2023-10-31T06:15:49;13.07;;;9.07;;
44358;SDS011;30077;52.474;13.326;2023-10-31T06:25:50;12.50;;;9.70;;
44358;SDS011;30077;52.474;13.326;2023-10-31T06:35:51;12.50;;;7.90;;
44358;SDS011;30077;52.474;13.326;2023-10-31T06:45:53;15.02;;;10.02;;
44358;SDS011;30077;52.474;13.326;2023-10-31T06:55:54;8.27;;;6.55;;
44358;SDS011;30077;52.474;13.326;2023-10-31T07:05:55;9.63;;;7.07;;
44358;SDS011;30077;52.474;13.326;2023-10-31T07:15:56;8.10;;;5.47;;
44358;SDS011;30077;52.474;13.326;2023-10-31T07:25:57;4.17;;;3.73;;
44358;SDS011;30077;52.474;13.326;2023-10-31T07:35:57;5.25;;;3.22;;
44358;SDS011;30077;52.474;13.326;2023-10-31T07:45:58;5.18;;;3.20;;
44358;SDS011;30077;52.474;13.326;2023-10-31T07:55:59;4.28;;;2.00;;
44358;SDS011;30077;52.474;13.326;2023-10-31T08:06:00;3.50;;;1.70;;
44358;SDS011;30077;52.474;13.326;2023-10-31T08:16:00;1.60;;;1.38;;
44358;SDS011;30077;52.474;13.326;2023-10-31T08:26:01;1.97;;;1.07;;
44358;SDS011;30077;52.474;13.326;2023-10-31T08:36:02;2.55;;;1.08;;
44358;SDS011;30077;52.474;13.326;2023-10-31T08:46:03;5.60;;;1.00;;
44358;SDS011;30077;52.474;13.326;2023-10-31T08:56:04;2.47;;;0.70;;
44358;SDS011;30077;52.474;13.326;2023-10-31T09:06:05;0.82;;;0.80;;
44358;SDS011;30077;52.474;13.326;2023-10-31T09:16:07;2.65;;;1.00;;
44358;SDS011;30077;52.474;13.326;2023-10-31T09:26:08;1.98;;;0.90;;
44358;SDS011;30077;52.474;13.326;2023-10-31T09:36:09;2.45;;;1.25;;
44358;SDS011;30077;52.474;13.326;2023-10-31T09:46:10;1.60;;;1.50;;
44358;SDS011;30077;52.474;13.326;2023-10-31T09:56:11;1.38;;;1.15;;
44358;SDS011;30077;52.474;13.326;2023-10-31T10:06:12;3.90;;;1.38;;
44358;SDS011;30077;52.474;13.326;2023-10-31T10:16:27;3.00;;;1.67;;
44358;SDS011;30077;52.474;13.326;2023-10-31T10:26:31;2.50;;;1.95;;
44358;SDS011;30077;52.474;13.326;2023-10-31T10:36:32;4.10;;;1.50;;
44358;SDS011;30077;52.474;13.326;2023-10-31T10:47:03;3.60;;;2.65;;
44358;SDS011;30077;52.474;13.326;2023-10-31T10:57:09;2.35;;;2.00;;
44358;SDS011;30077;52.474;13.326;2023-10-31T11:07:20;6.28;;;3.53;;
44358;SDS011;30077;52.474;13.326;2023-10-31T11:17:33;2.08;;;1.88;;
44358;SDS011;30077;52.474;13.326;2023-10-31T11:27:36;9.93;;;5.93;;
44358;SDS011;30077;52.474;13.326;2023-10-31T11:37:37;6.57;;;2.30;;
44358;SDS011;30077;52.474;13.326;2023-10-31T11:47:47;2.10;;;1.80;;
44358;SDS011;30077;52.474;13.326;2023-10-31T11:57:49;5.88;;;3.60;;
44358;SDS011;30077;52.474;13.326;2023-10-31T12:07:49;2.07;;;1.23;;
44358;SDS011;30077;52.474;13.326;2023-10-31T12:17:50;1.80;;;1.63;;
44358;SDS011;30077;52.474;13.326;2023-10-31T12:27:51;3.75;;;1.00;;
44358;SDS011;30077;52.474;13.326;2023-10-31T12:37:51;0.77;;;0.70;;
44358;SDS011;30077;52.474;13.326;2023-10-31T12:48:08;2.50;;;0.80;;
44358;SDS011;30077;52.474;13.326;2023-10-31T12:58:19;2.55;;;0.90;;
44358;SDS011;30077;52.474;13.326;2023-10-31T13:08:22;1.10;;;0.80;;
44358;SDS011;30077;52.474;13.326;2023-10-31T13:18:22;1.15;;;0.93;;
44358;SDS011;30077;52.474;13.326;2023-10-31T13:28:23;1.90;;;1.07;;
44358;SDS011;30077;52.474;13.326;2023-10-31T13:38:24;2.07;;;1.20;;
44358;SDS011;30077;52.474;13.326;2023-10-31T13:48:24;2.30;;;1.10;;
44358;SDS011;30077;52.474;13.326;2023-10-31T13:58:26;6.95;;;3.30;;
44358;SDS011;30077;52.474;13.326;2023-10-31T14:08:26;1.03;;;0.80;;
44358;SDS011;30077;52.474;13.326;2023-10-31T14:18:27;4.13;;;1.40;;
44358;SDS011;30077;52.474;13.326;2023-10-31T14:28:27;2.87;;;0.90;;
44358;SDS011;30077;52.474;13.326;2023-10-31T14:38:28;0.95;;;0.80;;
44358;SDS011;30077;52.474;13.326;2023-10-31T14:48:29;1.30;;;1.00;;
44358;SDS011;30077;52.474;13.326;2023-10-31T14:58:30;1.27;;;0.73;;
44358;SDS011;30077;52.474;13.326;2023-10-31T15:08:30;7.30;;;1.10;;
44358;SDS011;30077;52.474;13.326;2023-10-31T15:18:31;3.10;;;2.00;;
44358;SDS011;30077;52.474;13.326;2023-10-31T15:28:32;1.10;;;1.00;;
44358;SDS011;30077;52.474;13.326;2023-10-31T15:38:32;4.93;;;2.90;;
44358;SDS011;30077;52.474;13.326;2023-10-31T15:48:33;5.40;;;2.05;;
44358;SDS011;30077;52.474;13.326;2023-10-31T15:58:34;4.60;;;2.17;;
44358;SDS011;30077;52.474;13.326;2023-10-31T16:08:36;3.17;;;1.70;;
44358;SDS011;30077;52.474;13.326;2023-10-31T16:18:39;2.63;;;2.17;;
44358;SDS011;30077;52.474;13.326;2023-10-31T16:28:40;17.58;;;9.30;;
44358;SDS011;30077;52.474;13.326;2023-10-31T16:38:41;4.43;;;2.78;;
44358;SDS011;30077;52.474;13.326;2023-10-31T16:48:42;5.10;;;3.53;;
44358;SDS011;30077;52.474;13.326;2023-10-31T16:58:44;4.53;;;3.55;;
44358;SDS011;30077;52.474;13.326;2023-10-31T17:08:45;4.43;;;2.97;;
44358;SDS011;30077;52.474;13.326;2023-10-31T17:18:46;34.33;;;21.97;;
44358;SDS011;30077;52.474;13.326;2023-10-31T17:28:47;6.05;;;3.55;;
44358;SDS011;30077;52.474;13.326;2023-10-31T17:38:48;4.23;;;3.60;;
44358;SDS011;30077;52.474;13.326;2023-10-31T17:48:49;8.35;;;5.10;;
44358;SDS011;30077;52.474;13.326;2023-10-31T17:58:50;4.90;;;4.22;;
44358;SDS011;30077;52.474;13.326;2023-10-31T18:08:50;10.00;;;7.00;;
44358;SDS011;30077;52.474;13.326;2023-10-31T18:18:51;5.80;;;4.95;;
44358;SDS011;30077;52.474;13.326;2023-10-31T18:28:52;7.30;;;5.60;;
44358;SDS011;30077;52.474;13.326;2023-10-31T18:38:53;6.47;;;4.17;;
44358;SDS011;30077;52.474;13.326;2023-10-31T18:48:53;6.00;;;4.10;;
44358;SDS011;30077;52.474;13.326;2023-10-31T18:58:54;4.37;;;2.93;;
44358;SDS011;30077;52.474;13.326;2023-10-31T19:08:55;7.50;;;3.90;;
44358;SDS011;30077;52.474;13.326;2023-10-31T19:18:55;4.22;;;2.40;;
44358;SDS011;30077;52.474;13.326;2023-10-31T19:39:29;0.98;;;0.82;;
44358;SDS011;30077;52.474;13.326;2023-10-31T19:49:30;3.60;;;1.03;;
44358;SDS011;30077;52.474;13.326;2023-10-31T19:59:30;2.63;;;0.80;;
44358;SDS011;30077;52.474;13.326;2023-10-31T20:09:31;1.20;;;0.60;;
44358;SDS011;30077;52.474;13.326;2023-10-31T20:19:31;0.73;;;0.60;;
44358;SDS011;30077;52.474;13.326;2023-10-31T20:29:32;1.47;;;0.67;;
44358;SDS011;30077;52.474;13.326;2023-10-31T20:39:33;4.15;;;0.80;;
44358;SDS011;30077;52.474;13.326;2023-10-31T20:49:34;2.22;;;0.80;;
44358;SDS011;30077;52.474;13.326;2023-10-31T20:59:34;4.83;;;0.77;;
44358;SDS011;30077;52.474;13.326;2023-10-31T21:09:35;2.88;;;0.77;;
44358;SDS011;30077;52.474;13.326;2023-10-31T21:19:36;2.63;;;0.90;;
44358;SDS011;30077;52.474;13.326;2023-10-31T21:29:38;2.17;;;0.88;;
44358;SDS011;30077;52.474;13.326;2023-10-31T21:39:40;3.17;;;1.10;;
44358;SDS011;30077;52.474;13.326;2023-10-31T21:49:41;4.07;;;1.00;;
44358;SDS011;30077;52.474;13.326;2023-10-31T21:59:43;1.65;;;1.20;;
44358;SDS011;30077;52.474;13.326;2023-10-31T22:09:43;2.08;;;0.60;;
44358;SDS011;30077;52.474;13.326;2023-10-31T22:19:44;2.23;;;1.00;;
44358;SDS011;30077;52.474;13.326;2023-10-31T22:29:45;2.95;;;0.88;;
44358;SDS011;30077;52.474;13.326;2023-10-31T22:39:45;4.87;;;1.20;;
44358;SDS011;30077;52.474;13.326;2023-10-31T22:49:46;2.03;;;0.90;;
44358;SDS011;30077;52.474;13.326;2023-10-31T22:59:48;2.28;;;0.70;;
44358;SDS011;30077;52.474;13.326;2023-10-31T23:09:52;4.95;;;0.80;;
44358;SDS011;30077;52.474;13.326;2023-10-31T23:19:53;1.02;;;0.60;;
44358;SDS011;30077;52.474;13.326;2023-10-31T23:29:56;5.70;;;0.90;;
44358;SDS011;30077;52.474;13.326;2023-10-31T23:39:57;2.75;;;0.60;;
44358;SDS011;30077;52.474;13.326;2023-10-31T23:49:57;3.50;;;1.00;;
44358;SDS011;30077;52.474;13.326;2023-10-31T23:59:58;1.45;;;0.68;;
